Time;durP1;ratioP1;P1;durP2;ratioP2;P2;SDS_P1;SDS_P2;PMS_P1;PMS_P2;Temp;Humidity;BMP_temperature;BMP_pressure;BME280_temperature;BME280_humidity;BME280_pressure;Samples;Min_cycle;Max_cycle;Signal;HPM_P1;HPM_P2
2021/12/20 00:03:39;;;;;;;12.25;7.37;;;6.30;99.90;;;;;;7275137;32;20207;-80
2021/12/20 00:07:42;;;;;;;14.15;7.75;;;6.20;99.90;;;;;;7278691;32;20229;-80
2021/12/20 00:11:43;;;;;;;18.12;7.97;;;6.20;99.90;;;;;;7278774;32;20104;-80
2021/12/20 00:15:45;;;;;;;15.77;8.23;;;6.10;99.90;;;;;;7278572;32;20137;-80
2021/12/20 00:19:47;;;;;;;13.82;9.23;;;6.10;99.90;;;;;;7292936;32;20100;-80
2021/12/20 00:23:49;;;;;;;15.38;7.85;;;6.00;99.90;;;;;;7291353;32;20581;-80
2021/12/20 00:27:50;;;;;;;21.62;9.40;;;6.00;99.90;;;;;;7290829;32;20134;-80
2021/12/20 00:31:52;;;;;;;16.37;7.75;;;6.00;99.90;;;;;;7292011;32;20126;-80
2021/12/20 00:35:54;;;;;;;14.75;7.32;;;6.10;99.90;;;;;;7266446;32;20145;-80
2021/12/20 00:44:18;;;;;;;13.90;7.70;;;6.10;99.90;;;;;;7229901;32;20126;-80
2021/12/20 00:48:28;;;;;;;13.88;6.20;;;6.10;99.90;;;;;;7250515;32;20181;-79
2021/12/20 00:52:30;;;;;;;14.90;6.90;;;6.00;99.90;;;;;;7264655;32;20121;-78
2021/12/20 00:56:32;;;;;;;18.95;7.87;;;6.00;99.90;;;;;;7251638;32;20184;-80
2021/12/20 01:00:43;;;;;;;15.35;6.70;;;5.90;99.90;;;;;;7251825;32;20480;-80
2021/12/20 01:04:45;;;;;;;17.02;7.25;;;6.00;99.90;;;;;;7251282;32;20104;-80
2021/12/20 01:08:48;;;;;;;14.43;6.45;;;6.00;99.90;;;;;;7263844;32;20126;-79
2021/12/20 01:12:51;;;;;;;15.20;6.28;;;6.00;99.90;;;;;;7264695;32;20130;-80
2021/12/20 01:16:56;;;;;;;15.70;6.25;;;6.00;99.90;;;;;;7263896;32;20552;-80
2021/12/20 01:20:58;;;;;;;19.83;6.72;;;6.00;99.90;;;;;;7264082;32;20127;-79
2021/12/20 01:25:00;;;;;;;14.63;6.40;;;5.90;99.90;;;;;;7267204;32;20109;-80
2021/12/20 01:29:01;;;;;;;14.70;6.55;;;6.00;99.90;;;;;;7241622;32;20203;-80
2021/12/20 01:33:08;;;;;;;15.93;6.28;;;5.90;99.90;;;;;;7226043;32;20478;-81
2021/12/20 01:37:10;;;;;;;14.45;6.45;;;5.90;99.90;;;;;;7246022;32;20112;-81
2021/12/20 01:41:12;;;;;;;20.12;6.25;;;5.90;99.90;;;;;;7264243;32;20225;-81
2021/12/20 01:45:17;;;;;;;17.27;6.75;;;5.80;99.90;;;;;;7243737;32;20119;-81
2021/12/20 01:49:19;;;;;;;17.58;6.80;;;5.80;99.90;;;;;;7239374;32;20200;-81
2021/12/20 01:53:23;;;;;;;16.98;6.60;;;5.80;99.90;;;;;;7261610;32;20130;-81
2021/12/20 01:57:25;;;;;;;13.48;6.70;;;5.80;99.90;;;;;;7258404;32;20124;-81
2021/12/20 02:01:27;;;;;;;15.52;6.32;;;5.70;99.90;;;;;;7246052;32;20113;-81
2021/12/20 02:09:39;;;;;;;16.60;7.68;;;5.70;99.90;;;;;;7262911;32;20550;-80
2021/12/20 02:13:41;;;;;;;19.85;8.20;;;5.70;99.90;;;;;;7249621;32;20112;-80
2021/12/20 02:17:43;;;;;;;15.57;6.70;;;5.70;99.90;;;;;;7263855;32;20166;-80
2021/12/20 02:21:45;;;;;;;18.87;6.95;;;5.70;99.90;;;;;;7264720;32;20105;-80
2021/12/20 02:25:47;;;;;;;13.57;6.03;;;5.70;99.90;;;;;;7277945;32;20112;-80
2021/12/20 02:30:08;;;;;;;16.20;5.10;;;5.70;99.90;;;;;;7290029;32;20129;-80
2021/12/20 02:38:31;;;;;;;10.57;3.87;;;5.70;99.90;;;;;;7277718;32;20152;-80
2021/12/20 02:42:39;;;;;;;15.95;3.20;;;5.70;99.90;;;;;;7279595;32;20134;-80
2021/12/20 02:50:43;;;;;;;14.52;3.33;;;5.70;99.90;;;;;;7294911;32;20065;-80
2021/12/20 02:54:44;;;;;;;15.77;3.78;;;5.60;99.90;;;;;;7291641;32;20157;-80
2021/12/20 02:58:46;;;;;;;12.07;2.92;;;5.60;99.90;;;;;;7257396;32;20117;-80
2021/12/20 03:02:48;;;;;;;13.30;3.90;;;5.60;99.90;;;;;;7254170;32;20125;-79
2021/12/20 03:06:56;;;;;;;11.12;3.45;;;5.60;99.90;;;;;;7251107;32;20619;-80
2021/12/20 03:10:58;;;;;;;8.63;2.80;;;5.60;99.90;;;;;;7225590;32;20123;-80
2021/12/20 03:15:08;;;;;;;17.65;4.50;;;5.60;99.90;;;;;;7228121;32;20507;-80
2021/12/20 03:19:10;;;;;;;14.50;3.03;;;5.50;99.90;;;;;;7246614;32;20108;-79
2021/12/20 03:23:11;;;;;;;14.30;3.05;;;5.50;99.90;;;;;;7245085;32;20259;-80
2021/12/20 03:27:13;;;;;;;11.20;2.75;;;5.50;99.90;;;;;;7268896;32;20486;-80
2021/12/20 03:31:15;;;;;;;12.70;2.78;;;5.60;99.90;;;;;;7263281;32;20116;-80
2021/12/20 03:35:17;;;;;;;14.38;2.55;;;5.50;99.90;;;;;;7263432;32;20151;-81
2021/12/20 03:39:19;;;;;;;16.25;2.65;;;5.50;99.90;;;;;;7264242;32;20191;-81
2021/12/20 03:43:24;;;;;;;10.95;2.65;;;5.50;99.90;;;;;;7263789;32;20130;-81
2021/12/20 03:47:25;;;;;;;12.13;2.60;;;5.50;99.90;;;;;;7250850;32;20132;-81
2021/12/20 03:51:27;;;;;;;14.40;3.80;;;5.50;99.90;;;;;;7267609;32;20659;-81
2021/12/20 03:55:29;;;;;;;11.80;3.72;;;5.40;99.90;;;;;;7268345;32;20142;-81
2021/12/20 03:59:31;;;;;;;17.00;4.03;;;5.40;99.90;;;;;;7248364;32;20116;-81
2021/12/20 04:03:35;;;;;;;9.88;3.28;;;5.40;99.90;;;;;;7230454;32;20116;-80
2021/12/20 04:07:37;;;;;;;14.32;3.30;;;5.40;99.90;;;;;;7254159;32;20136;-80
2021/12/20 04:11:39;;;;;;;12.52;2.87;;;5.40;99.90;;;;;;7267491;32;20132;-81
2021/12/20 04:15:41;;;;;;;17.83;2.72;;;5.30;99.90;;;;;;7267633;32;20226;-81
2021/12/20 04:19:43;;;;;;;15.32;3.58;;;5.30;99.90;;;;;;7254739;32;20120;-81
2021/12/20 04:23:45;;;;;;;13.15;2.83;;;5.40;99.90;;;;;;7254944;32;20123;-80
2021/12/20 04:27:47;;;;;;;12.50;2.95;;;5.40;99.90;;;;;;7253969;32;20116;-80
2021/12/20 04:31:49;;;;;;;7.70;3.42;;;5.40;99.90;;;;;;7253783;32;20136;-80
2021/12/20 04:35:51;;;;;;;16.23;3.78;;;5.30;99.90;;;;;;7252914;32;20172;-80
2021/12/20 04:39:52;;;;;;;16.00;4.70;;;5.20;99.90;;;;;;7252152;32;20120;-80
2021/12/20 04:43:54;;;;;;;12.15;3.90;;;5.30;99.90;;;;;;7239398;32;20178;-80
2021/12/20 04:47:57;;;;;;;14.93;3.50;;;5.30;99.90;;;;;;7251595;32;20142;-79
2021/12/20 04:51:59;;;;;;;18.02;3.72;;;5.30;99.90;;;;;;7259732;32;20127;-80
2021/12/20 04:56:01;;;;;;;19.85;7.10;;;5.30;99.90;;;;;;7252146;32;20195;-80
2021/12/20 05:00:06;;;;;;;22.30;16.73;;;5.30;99.90;;;;;;7250575;32;20211;-80
2021/12/20 05:04:07;;;;;;;11.77;6.15;;;5.30;99.90;;;;;;7261132;32;20109;-78
2021/12/20 05:08:11;;;;;;;11.75;4.35;;;5.20;99.90;;;;;;7239125;32;20174;-81
2021/12/20 05:12:14;;;;;;;22.52;10.15;;;5.10;99.90;;;;;;7250087;32;20230;-79
2021/12/20 05:16:17;;;;;;;24.98;11.07;;;5.10;99.90;;;;;;7260558;32;20737;-77
2021/12/20 05:20:19;;;;;;;14.57;4.82;;;5.10;99.90;;;;;;7256518;32;20881;-81
2021/12/20 05:24:21;;;;;;;12.77;3.55;;;5.10;99.90;;;;;;7266592;32;20104;-81
2021/12/20 05:28:23;;;;;;;17.30;3.50;;;5.10;99.90;;;;;;7263203;32;20290;-81
2021/12/20 05:32:25;;;;;;;16.55;3.53;;;5.10;99.90;;;;;;7251903;32;20120;-81
2021/12/20 05:36:27;;;;;;;17.83;3.08;;;5.10;99.90;;;;;;7267978;32;20101;-82
2021/12/20 05:40:29;;;;;;;11.02;3.05;;;5.10;99.90;;;;;;7239549;32;20132;-81
2021/12/20 05:44:31;;;;;;;15.52;2.55;;;5.10;99.90;;;;;;7266867;32;20170;-81
2021/12/20 05:48:32;;;;;;;18.23;2.78;;;5.10;99.90;;;;;;7256501;32;20221;-82
2021/12/20 05:52:34;;;;;;;14.30;2.37;;;5.00;99.90;;;;;;7250214;32;20136;-83
2021/12/20 05:56:36;;;;;;;11.75;2.55;;;5.00;99.90;;;;;;7262098;32;20146;-83
2021/12/20 06:00:38;;;;;;;20.50;3.37;;;4.90;99.90;;;;;;7255020;32;20124;-81
2021/12/20 06:04:40;;;;;;;17.85;4.35;;;4.90;99.90;;;;;;7257345;32;20101;-80
2021/12/20 06:08:42;;;;;;;13.35;2.17;;;4.90;99.90;;;;;;7271439;32;20108;-82
2021/12/20 06:12:44;;;;;;;11.95;2.92;;;4.90;99.90;;;;;;7247522;32;20159;-80
2021/12/20 06:16:46;;;;;;;16.08;2.80;;;4.80;99.90;;;;;;7268729;32;20480;-80
2021/12/20 06:20:52;;;;;;;17.70;4.25;;;4.80;99.90;;;;;;7253680;32;20218;-81
2021/12/20 06:24:54;;;;;;;22.30;5.70;;;4.80;99.90;;;;;;7258392;32;20116;-82
2021/12/20 06:28:56;;;;;;;20.05;3.25;;;4.80;99.90;;;;;;7270984;32;20165;-81
2021/12/20 06:32:58;;;;;;;16.33;2.83;;;4.70;99.90;;;;;;7264533;32;20168;-80
2021/12/20 06:37:08;;;;;;;15.32;2.67;;;4.60;99.90;;;;;;7255416;32;20127;-80
2021/12/20 06:41:10;;;;;;;11.50;2.50;;;4.40;99.90;;;;;;7263926;32;20446;-80
2021/12/20 06:45:12;;;;;;;14.85;2.17;;;4.30;99.90;;;;;;7243685;32;20130;-80
2021/12/20 06:49:14;;;;;;;13.82;2.60;;;4.20;99.90;;;;;;7247782;32;20180;-81
2021/12/20 06:53:15;;;;;;;10.25;2.62;;;4.10;99.90;;;;;;7239679;32;20195;-80
2021/12/20 06:57:20;;;;;;;11.55;1.80;;;3.90;99.90;;;;;;7252939;32;20495;-80
2021/12/20 07:01:21;;;;;;;16.35;2.00;;;3.80;99.90;;;;;;7258384;32;20463;-81
2021/12/20 07:05:23;;;;;;;13.35;3.20;;;3.70;99.90;;;;;;7254131;32;20263;-82
2021/12/20 07:09:26;;;;;;;11.15;2.67;;;3.60;99.90;;;;;;7254262;32;20497;-81
2021/12/20 07:13:28;;;;;;;14.70;2.20;;;3.40;99.90;;;;;;7256144;32;20129;-80
2021/12/20 07:17:30;;;;;;;8.88;1.50;;;3.30;99.90;;;;;;7250192;32;20160;-81
2021/12/20 07:21:32;;;;;;;10.02;2.15;;;3.20;99.90;;;;;;7260386;32;20175;-81
2021/12/20 07:25:34;;;;;;;12.43;2.60;;;3.10;99.90;;;;;;7264636;32;20129;-80
2021/12/20 07:29:37;;;;;;;7.80;2.53;;;3.00;99.90;;;;;;7265764;32;20294;-80
2021/12/20 07:33:40;;;;;;;14.25;2.65;;;2.80;99.90;;;;;;7251634;32;20162;-81
2021/12/20 07:37:43;;;;;;;5.85;1.90;;;2.80;99.90;;;;;;7265085;32;20089;-80
2021/12/20 07:41:46;;;;;;;9.02;1.90;;;2.60;99.90;;;;;;7260354;32;20169;-80
2021/12/20 07:45:48;;;;;;;8.60;1.40;;;2.60;99.90;;;;;;7261168;32;20129;-79
2021/12/20 07:49:50;;;;;;;10.60;2.22;;;2.60;99.90;;;;;;7245343;32;20332;-80
2021/12/20 07:53:52;;;;;;;8.38;1.80;;;2.50;99.90;;;;;;7249989;32;20343;-80
2021/12/20 07:57:53;;;;;;;7.60;1.90;;;2.40;99.90;;;;;;7237565;32;20270;-79
2021/12/20 08:01:56;;;;;;;9.32;1.50;;;2.40;99.90;;;;;;7264862;32;20180;-79
2021/12/20 08:05:57;;;;;;;5.15;2.03;;;2.30;99.90;;;;;;7245701;32;20535;-80
2021/12/20 08:09:59;;;;;;;8.38;1.58;;;2.20;99.90;;;;;;7238051;32;20719;-81
2021/12/20 08:14:02;;;;;;;7.40;2.08;;;2.20;99.90;;;;;;7252686;32;20117;-80
2021/12/20 08:18:06;;;;;;;9.25;1.80;;;2.10;99.90;;;;;;7256431;32;20124;-80
2021/12/20 08:22:07;;;;;;;16.23;2.78;;;2.10;99.90;;;;;;7272376;32;20134;-81
2021/12/20 08:26:10;;;;;;;12.48;1.83;;;2.10;99.90;;;;;;7245090;32;20147;-80
2021/12/20 08:30:13;;;;;;;7.93;2.35;;;2.10;99.90;;;;;;7256263;32;20112;-80
2021/12/20 08:34:15;;;;;;;6.18;2.25;;;2.10;99.90;;;;;;7264484;32;20553;-80
2021/12/20 08:38:19;;;;;;;5.75;1.65;;;2.10;99.90;;;;;;7248895;32;20433;-81
2021/12/20 08:42:21;;;;;;;10.45;1.90;;;2.10;99.90;;;;;;7249692;32;20643;-80
2021/12/20 08:46:23;;;;;;;7.78;2.47;;;2.10;99.90;;;;;;7261865;32;20121;-80
2021/12/20 08:50:24;;;;;;;7.22;2.12;;;2.10;99.90;;;;;;7256026;32;20215;-81
2021/12/20 08:54:29;;;;;;;9.70;2.87;;;2.10;99.90;;;;;;7247562;32;20113;-80
2021/12/20 09:03:36;;;;;;;8.23;2.40;;;2.20;99.90;;;;;;7255488;32;20097;-80
2021/12/20 09:07:40;;;;;;;7.53;2.30;;;2.20;99.90;;;;;;7264224;32;20097;-80
2021/12/20 09:11:43;;;;;;;8.20;2.62;;;2.30;99.90;;;;;;7243331;32;20108;-80
2021/12/20 09:15:45;;;;;;;6.55;2.47;;;2.30;99.90;;;;;;7255649;32;20120;-81
2021/12/20 09:19:47;;;;;;;9.02;2.78;;;2.40;99.90;;;;;;7248001;32;20179;-80
2021/12/20 09:23:49;;;;;;;20.35;3.75;;;2.50;99.90;;;;;;7250465;32;20124;-80
2021/12/20 09:27:54;;;;;;;19.17;4.37;;;2.70;99.90;;;;;;7247945;32;20117;-80
2021/12/20 09:31:59;;;;;;;26.40;5.28;;;2.90;99.90;;;;;;7248223;32;20142;-80
2021/12/20 09:36:02;;;;;;;30.67;6.30;;;3.10;99.90;;;;;;7243500;32;20132;-80
2021/12/20 09:40:12;;;;;;;29.60;6.93;;;3.30;99.90;;;;;;7262181;32;20226;-80
2021/12/20 09:44:14;;;;;;;33.70;6.97;;;3.40;99.90;;;;;;7241697;32;20167;-80
2021/12/20 09:48:16;;;;;;;36.15;7.37;;;3.50;99.90;;;;;;7256290;32;20171;-80
2021/12/20 09:52:18;;;;;;;24.45;6.85;;;3.60;99.90;;;;;;7250063;32;20119;-80
2021/12/20 09:56:24;;;;;;;40.17;7.28;;;3.80;99.90;;;;;;7263640;32;20140;-79
2021/12/20 10:00:28;;;;;;;30.60;6.72;;;3.90;99.90;;;;;;7254742;32;20473;-81
2021/12/20 10:04:30;;;;;;;35.47;6.03;;;3.90;99.90;;;;;;7249033;32;20152;-80
2021/12/20 10:08:33;;;;;;;28.48;5.78;;;4.00;99.90;;;;;;7252942;32;20183;-81
2021/12/20 10:12:34;;;;;;;25.20;6.05;;;4.10;99.90;;;;;;7252494;32;20108;-81
2021/12/20 10:16:38;;;;;;;32.90;5.35;;;4.10;99.90;;;;;;7249767;32;20378;-82
2021/12/20 10:20:42;;;;;;;27.85;5.45;;;4.20;99.90;;;;;;7268172;32;20174;-81
2021/12/20 10:24:44;;;;;;;23.48;4.80;;;4.30;99.90;;;;;;7249562;32;20219;-81
2021/12/20 10:28:52;;;;;;;32.88;5.30;;;4.30;99.90;;;;;;7265698;32;20101;-81
2021/12/20 10:32:55;;;;;;;25.27;5.87;;;4.40;99.90;;;;;;7244738;32;20245;-79
2021/12/20 10:36:59;;;;;;;29.58;5.50;;;4.50;99.90;;;;;;7251786;32;20489;-79
2021/12/20 10:41:12;;;;;;;19.73;4.12;;;4.60;99.90;;;;;;7249154;32;20814;-79
2021/12/20 10:45:17;;;;;;;23.83;4.82;;;4.70;99.90;;;;;;7249801;32;20191;-80
2021/12/20 10:49:27;;;;;;;23.17;5.60;;;4.70;99.90;;;;;;7260518;32;20200;-80
2021/12/20 10:58:36;;;;;;;28.17;4.65;;;4.80;99.90;;;;;;7251937;32;20466;-81
2021/12/20 11:12:03;;;;;;;27.75;5.28;;;5.00;99.90;;;;;;7255954;32;20202;-81
2021/12/20 11:16:36;;;;;;;22.77;3.75;;;5.10;99.90;;;;;;7259079;32;20168;-80
2021/12/20 11:20:37;;;;;;;19.12;2.67;;;5.10;99.90;;;;;;7259421;32;20142;-81
2021/12/20 11:24:49;;;;;;;16.02;2.67;;;5.10;99.90;;;;;;7264476;32;20136;-81
2021/12/20 11:28:51;;;;;;;14.82;3.25;;;5.10;99.90;;;;;;7247391;32;20200;-80
2021/12/20 11:32:54;;;;;;;12.75;2.17;;;5.20;99.90;;;;;;7278234;32;20179;-80
2021/12/20 11:36:57;;;;;;;16.17;2.00;;;5.20;99.90;;;;;;7261999;32;20137;-81
2021/12/20 11:41:00;;;;;;;19.73;3.70;;;5.30;99.90;;;;;;7288778;32;20101;-81
2021/12/20 11:45:05;;;;;;;17.00;2.37;;;5.20;99.90;;;;;;7274757;32;20175;-81
2021/12/20 11:49:08;;;;;;;14.90;2.40;;;5.30;99.90;;;;;;7265368;32;20170;-81
2021/12/20 11:53:14;;;;;;;10.82;2.58;;;5.40;99.90;;;;;;7269187;32;20126;-81
2021/12/20 11:57:29;;;;;;;9.55;1.95;;;5.40;99.90;;;;;;7265466;32;20736;-82
2021/12/20 12:01:30;;;;;;;12.00;1.92;;;5.50;99.90;;;;;;7260251;32;20492;-80
2021/12/20 12:05:51;;;;;;;9.10;1.92;;;5.50;99.90;;;;;;7272616;32;20584;-81
2021/12/20 12:10:00;;;;;;;9.77;1.75;;;5.50;99.90;;;;;;7251176;32;20526;-81
2021/12/20 12:14:06;;;;;;;8.90;2.20;;;5.60;99.90;;;;;;7268788;32;20111;-87
2021/12/20 12:18:17;;;;;;;10.90;1.80;;;5.70;99.90;;;;;;7257146;32;20166;-82
2021/12/20 12:22:33;;;;;;;4.82;1.12;;;5.60;99.90;;;;;;7253643;32;20143;-80
2021/12/20 12:26:39;;;;;;;6.28;1.20;;;5.70;99.90;;;;;;7258094;32;20147;-88
2021/12/20 12:30:43;;;;;;;4.07;0.77;;;5.70;99.90;;;;;;7265661;32;20724;-81
2021/12/20 12:34:45;;;;;;;8.88;1.10;;;5.70;99.90;;;;;;7273216;32;20151;-81
2021/12/20 12:39:06;;;;;;;7.15;1.40;;;5.80;99.90;;;;;;7247024;32;20122;-89
2021/12/20 12:43:07;;;;;;;4.62;1.10;;;5.80;99.90;;;;;;7271147;32;20528;-81
2021/12/20 12:47:13;;;;;;;7.50;0.77;;;5.70;99.90;;;;;;7263347;32;20196;-81
2021/12/20 12:51:27;;;;;;;6.05;1.10;;;5.70;99.90;;;;;;7268747;32;20581;-85
2021/12/20 12:55:30;;;;;;;3.62;0.82;;;5.70;99.90;;;;;;7270217;32;20160;-81
2021/12/20 12:59:32;;;;;;;7.43;0.95;;;5.70;99.90;;;;;;7272597;32;20150;-81
2021/12/20 13:03:35;;;;;;;7.25;1.30;;;5.70;99.90;;;;;;7270222;32;20179;-88
2021/12/20 13:07:48;;;;;;;5.30;0.90;;;5.70;99.90;;;;;;7257615;32;20219;-81
2021/12/20 13:12:07;;;;;;;5.95;1.15;;;5.80;99.90;;;;;;7272167;32;20572;-82
2021/12/20 13:16:16;;;;;;;4.85;0.85;;;5.80;99.90;;;;;;7263413;32;20135;-89
2021/12/20 13:24:21;;;;;;;6.05;1.00;;;5.70;99.90;;;;;;7255242;32;20511;-81
2021/12/20 13:28:37;;;;;;;5.07;0.70;;;5.80;99.90;;;;;;7246193;32;20290;-85
2021/12/20 13:32:38;;;;;;;11.23;0.98;;;5.80;99.90;;;;;;7245586;32;20113;-81
2021/12/20 13:36:51;;;;;;;5.95;1.30;;;5.90;99.90;;;;;;7268032;32;20125;-80
2021/12/20 13:41:11;;;;;;;3.58;0.60;;;6.10;99.90;;;;;;7267308;32;20168;-91
2021/12/20 13:45:16;;;;;;;4.68;1.15;;;6.00;99.90;;;;;;7252302;32;20534;-90
2021/12/20 13:49:21;;;;;;;6.78;1.25;;;5.90;99.90;;;;;;7252547;32;20123;-80
2021/12/20 13:53:33;;;;;;;4.45;0.98;;;5.80;99.90;;;;;;7267131;32;20113;-79
2021/12/20 13:57:53;;;;;;;4.65;0.88;;;5.80;99.90;;;;;;7233018;32;20877;-83
2021/12/20 14:01:56;;;;;;;3.97;0.93;;;5.70;99.90;;;;;;7246153;32;20134;-80
2021/12/20 14:05:58;;;;;;;5.87;0.70;;;5.70;99.90;;;;;;7271258;32;20211;-80
2021/12/20 14:10:42;;;;;;;5.68;0.90;;;5.80;99.90;;;;;;7241922;32;20160;-87
2021/12/20 14:15:05;;;;;;;5.90;0.85;;;6.00;99.90;;;;;;7239207;32;20267;-89
2021/12/20 14:19:06;;;;;;;7.35;1.48;;;6.00;99.90;;;;;;7245874;32;20169;-85
2021/12/20 14:23:21;;;;;;;4.60;1.10;;;6.00;99.90;;;;;;7267352;32;20099;-81
2021/12/20 14:27:23;;;;;;;6.77;1.20;;;5.80;99.90;;;;;;7249795;32;20109;-81
2021/12/20 14:31:50;;;;;;;3.60;0.70;;;5.60;99.90;;;;;;7267723;32;20142;-88
2021/12/20 14:36:15;;;;;;;4.50;0.93;;;5.50;99.90;;;;;;7240043;32;20147;-88
2021/12/20 14:40:45;;;;;;;3.87;1.00;;;5.40;99.90;;;;;;7246849;32;20120;-81
2021/12/20 14:44:54;;;;;;;3.85;1.00;;;5.30;99.90;;;;;;7239827;32;20121;-80
2021/12/20 14:49:19;;;;;;;6.47;1.23;;;5.10;99.90;;;;;;7259270;32;20166;-81
2021/12/20 14:53:24;;;;;;;6.40;1.00;;;4.90;99.90;;;;;;7232213;32;20134;-79
2021/12/20 14:57:36;;;;;;;4.93;0.90;;;4.80;99.90;;;;;;7260675;32;20171;-85
2021/12/20 15:01:38;;;;;;;8.88;0.88;;;4.70;99.90;;;;;;7270420;32;20113;-78
2021/12/20 15:05:41;;;;;;;8.68;1.20;;;4.50;99.90;;;;;;7258600;32;20213;-79
2021/12/20 15:09:59;;;;;;;8.02;1.90;;;4.40;99.90;;;;;;7263990;32;20139;-82
2021/12/20 15:14:02;;;;;;;4.75;0.90;;;4.30;99.90;;;;;;7248205;32;20127;-78
2021/12/20 15:18:05;;;;;;;2.72;0.80;;;4.30;99.90;;;;;;7235147;32;20124;-79
2021/12/20 15:22:09;;;;;;;5.68;0.70;;;4.10;99.90;;;;;;7258306;32;20170;-78
2021/12/20 15:26:11;;;;;;;3.50;0.77;;;4.00;99.90;;;;;;7240233;32;20112;-78
2021/12/20 15:30:13;;;;;;;5.10;0.95;;;3.80;99.90;;;;;;7261104;32;20234;-79
2021/12/20 15:34:16;;;;;;;4.78;1.10;;;3.60;99.90;;;;;;7239757;32;20488;-79
2021/12/20 15:38:18;;;;;;;3.58;0.85;;;3.40;99.90;;;;;;7261140;32;20409;-79
2021/12/20 15:42:29;;;;;;;8.07;1.60;;;3.20;99.90;;;;;;7253647;32;20169;-78
2021/12/20 15:46:32;;;;;;;3.65;1.35;;;2.90;99.90;;;;;;7273474;32;20081;-79
2021/12/20 15:50:34;;;;;;;4.47;1.30;;;2.80;99.90;;;;;;7254668;32;20179;-79
2021/12/20 15:54:36;;;;;;;6.12;1.20;;;2.60;99.90;;;;;;7298359;32;20314;-79
2021/12/20 15:58:38;;;;;;;4.20;0.80;;;2.40;99.90;;;;;;7270483;32;20194;-79
2021/12/20 16:02:40;;;;;;;9.10;2.78;;;2.20;99.90;;;;;;7281893;32;20166;-79
2021/12/20 16:06:42;;;;;;;4.68;1.00;;;2.00;99.90;;;;;;7266261;32;20470;-79
2021/12/20 16:10:45;;;;;;;3.50;0.70;;;1.90;99.90;;;;;;7284974;32;20190;-79
2021/12/20 16:14:46;;;;;;;8.70;1.55;;;1.70;99.90;;;;;;7271354;32;20113;-79
2021/12/20 16:18:48;;;;;;;5.65;2.35;;;1.60;99.90;;;;;;7254386;32;20112;-79
2021/12/20 16:22:50;;;;;;;12.25;2.10;;;1.50;99.90;;;;;;7269268;32;20241;-78
2021/12/20 16:26:52;;;;;;;7.12;1.73;;;1.30;99.90;;;;;;7264209;32;20564;-79
2021/12/20 16:30:56;;;;;;;5.95;1.30;;;1.30;99.90;;;;;;7262673;32;20234;-80
2021/12/20 16:34:57;;;;;;;3.53;1.15;;;1.10;99.90;;;;;;7236917;32;20163;-80
2021/12/20 16:38:59;;;;;;;3.15;1.00;;;1.00;99.90;;;;;;7263058;32;20112;-79
2021/12/20 16:43:02;;;;;;;4.80;1.35;;;0.90;99.90;;;;;;7257827;32;20137;-80
2021/12/20 16:47:20;;;;;;;5.75;1.40;;;0.90;99.90;;;;;;7280804;32;20116;-81
2021/12/20 16:51:23;;;;;;;6.60;1.80;;;0.70;99.90;;;;;;7255233;32;20125;-80
2021/12/20 16:55:39;;;;;;;2.97;1.70;;;0.60;99.90;;;;;;7267552;32;20123;-80
2021/12/20 16:59:44;;;;;;;5.43;2.30;;;0.60;99.90;;;;;;7255233;32;20120;-79
2021/12/20 17:08:09;;;;;;;9.00;3.90;;;0.50;99.90;;;;;;7268616;32;20092;-80
2021/12/20 17:12:12;;;;;;;10.85;4.68;;;0.40;99.90;;;;;;7247700;32;20211;-80
2021/12/20 17:16:14;;;;;;;8.10;3.22;;;0.30;99.90;;;;;;7251822;32;20191;-80
2021/12/20 17:20:16;;;;;;;17.42;4.97;;;0.30;99.90;;;;;;7263596;32;20109;-80
2021/12/20 17:24:18;;;;;;;13.90;5.85;;;0.20;99.90;;;;;;7264692;32;20126;-81
2021/12/20 17:28:20;;;;;;;21.12;8.07;;;0.20;99.90;;;;;;7238188;32;20550;-80
2021/12/20 17:32:21;;;;;;;11.63;4.37;;;0.10;99.90;;;;;;7251417;32;20679;-80
2021/12/20 17:36:23;;;;;;;7.85;2.70;;;0.10;99.90;;;;;;7244928;32;20129;-79
2021/12/20 17:40:25;;;;;;;14.95;6.00;;;0.10;99.90;;;;;;7244828;32;20128;-79
2021/12/20 17:44:29;;;;;;;12.32;4.50;;;0.10;99.90;;;;;;7250774;32;20151;-80
2021/12/20 17:48:31;;;;;;;15.55;6.22;;;0.10;99.90;;;;;;7246924;32;20473;-80
2021/12/20 17:52:33;;;;;;;11.82;6.68;;;0.10;99.90;;;;;;7242965;32;20130;-79
2021/12/20 17:56:35;;;;;;;8.68;6.72;;;0.10;99.90;;;;;;7248980;32;20212;-79
2021/12/20 18:00:38;;;;;;;5.43;2.67;;;0.00;99.90;;;;;;7243635;32;20191;-79
2021/12/20 18:04:39;;;;;;;9.93;2.50;;;0.00;99.90;;;;;;7242774;32;20112;-80
2021/12/20 18:08:43;;;;;;;9.25;2.30;;;0.00;99.90;;;;;;7239352;32;20721;-80
2021/12/20 18:12:48;;;;;;;7.75;2.35;;;0.00;99.90;;;;;;7261652;32;20149;-79
2021/12/20 18:16:49;;;;;;;6.37;2.15;;;0.00;99.90;;;;;;7261264;32;20273;-79
2021/12/20 18:20:51;;;;;;;11.32;3.17;;;0.00;99.90;;;;;;7256681;32;20534;-79
2021/12/20 18:24:53;;;;;;;5.80;2.58;;;0.10;99.90;;;;;;7246588;32;20112;-78
2021/12/20 18:28:58;;;;;;;7.07;2.83;;;0.10;99.90;;;;;;7227933;32;20241;-79
2021/12/20 18:33:00;;;;;;;8.55;2.58;;;0.10;99.90;;;;;;7247055;32;20195;-80
2021/12/20 18:37:02;;;;;;;6.30;2.08;;;0.00;99.90;;;;;;7241105;32;20188;-78
2021/12/20 18:41:05;;;;;;;7.53;2.75;;;0.00;99.90;;;;;;7263425;32;20224;-79
2021/12/20 18:45:07;;;;;;;9.73;3.58;;;0.00;99.90;;;;;;7258803;32;20113;-79
2021/12/20 18:49:11;;;;;;;10.73;2.62;;;0.00;99.90;;;;;;7256635;32;20651;-79
2021/12/20 18:53:14;;;;;;;8.45;2.40;;;0.00;99.90;;;;;;7252245;32;20542;-79
2021/12/20 18:57:16;;;;;;;4.90;1.98;;;0.00;99.90;;;;;;7252714;32;20452;-80
2021/12/20 19:01:17;;;;;;;7.07;2.08;;;0.00;99.90;;;;;;7264964;32;20180;-79
2021/12/20 19:05:20;;;;;;;6.80;2.28;;;0.00;99.90;;;;;;7266784;32;20154;-79
2021/12/20 19:09:46;;;;;;;7.15;2.17;;;0.00;99.90;;;;;;7242599;32;20120;-79
2021/12/20 19:17:49;;;;;;;7.25;2.40;;;0.00;99.90;;;;;;7264452;32;20154;-79
2021/12/20 19:21:52;;;;;;;10.00;2.47;;;-0.10;99.90;;;;;;7250585;32;20117;-79
2021/12/20 19:25:55;;;;;;;7.12;2.12;;;-0.10;99.90;;;;;;7259232;32;20108;-79
2021/12/20 19:29:58;;;;;;;8.80;2.55;;;0.00;99.90;;;;;;7256585;32;20172;-79
2021/12/20 19:34:01;;;;;;;8.27;2.67;;;-0.20;99.90;;;;;;7270076;32;20549;-80
2021/12/20 19:38:03;;;;;;;7.47;2.90;;;-0.20;99.90;;;;;;7247797;32;20211;-79
2021/12/20 19:42:07;;;;;;;9.90;3.37;;;-0.30;99.90;;;;;;7279999;32;20206;-80
2021/12/20 19:46:15;;;;;;;10.32;3.70;;;-0.20;99.90;;;;;;7268633;32;20462;-81
2021/12/20 19:50:17;;;;;;;9.50;3.55;;;-0.20;99.90;;;;;;7256200;32;20132;-80
2021/12/20 19:54:19;;;;;;;7.40;2.97;;;-0.20;99.90;;;;;;7240008;32;20112;-79
2021/12/20 19:58:21;;;;;;;9.07;2.97;;;-0.30;99.90;;;;;;7265304;32;20100;-80
2021/12/20 20:02:23;;;;;;;10.77;3.10;;;-0.30;99.90;;;;;;7245217;32;20135;-79
2021/12/20 20:06:25;;;;;;;11.98;3.20;;;-0.30;99.90;;;;;;7256199;32;20215;-80
2021/12/20 20:10:27;;;;;;;7.68;3.28;;;-0.30;99.90;;;;;;7271133;32;20132;-81
2021/12/20 20:14:29;;;;;;;10.00;4.15;;;-0.30;99.90;;;;;;7269929;32;20135;-82
2021/12/20 20:18:31;;;;;;;12.13;4.55;;;-0.30;99.90;;;;;;7249914;32;20113;-82
2021/12/20 20:22:33;;;;;;;8.60;3.55;;;-0.30;99.90;;;;;;7258353;32;20108;-83
2021/12/20 20:26:35;;;;;;;9.48;3.80;;;-0.40;99.90;;;;;;7277546;32;20204;-83
2021/12/20 20:30:37;;;;;;;12.40;5.40;;;-0.40;99.90;;;;;;7260068;32;20737;-83
2021/12/20 20:34:39;;;;;;;19.83;8.77;;;-0.50;99.90;;;;;;7257676;32;20116;-83
2021/12/20 20:38:42;;;;;;;30.52;15.73;;;-0.50;99.90;;;;;;7257265;32;20175;-82
2021/12/20 20:42:44;;;;;;;30.30;14.73;;;-0.60;99.90;;;;;;7271085;32;20608;-84
2021/12/20 20:46:47;;;;;;;24.52;10.85;;;-0.60;99.90;;;;;;7257330;32;20248;-83
2021/12/20 20:50:49;;;;;;;12.13;6.75;;;-0.70;99.90;;;;;;7262027;32;20163;-82
2021/12/20 20:54:51;;;;;;;8.35;5.05;;;-0.70;99.90;;;;;;7252614;32;20168;-83
2021/12/20 20:58:54;;;;;;;10.30;4.45;;;-0.70;99.90;;;;;;7261430;32;20173;-82
2021/12/20 21:02:56;;;;;;;9.15;4.40;;;-0.70;99.90;;;;;;7252904;32;20181;-82
2021/12/20 21:07:04;;;;;;;9.98;5.20;;;-0.80;99.90;;;;;;7253672;32;20144;-83
2021/12/20 21:11:06;;;;;;;8.05;4.22;;;-0.90;99.90;;;;;;7264175;32;20155;-82
2021/12/20 21:15:08;;;;;;;9.48;4.57;;;-0.80;99.90;;;;;;7261608;32;20528;-82
2021/12/20 21:19:11;;;;;;;7.90;3.80;;;-0.80;99.90;;;;;;7246064;32;20174;-82
2021/12/20 21:23:13;;;;;;;9.45;3.40;;;-0.70;99.90;;;;;;7257991;32;20476;-82
2021/12/20 21:27:16;;;;;;;10.18;4.00;;;-0.70;99.90;;;;;;7257486;32;20174;-82
2021/12/20 21:31:18;;;;;;;7.22;3.30;;;-0.70;99.90;;;;;;7257633;32;20191;-82
2021/12/20 21:35:21;;;;;;;7.80;3.30;;;-0.70;99.90;;;;;;7273637;32;20103;-82
2021/12/20 21:39:23;;;;;;;8.90;3.22;;;-0.80;99.90;;;;;;7253549;32;20123;-81
2021/12/20 21:43:25;;;;;;;7.30;2.78;;;-0.80;99.90;;;;;;7269633;32;20257;-82
2021/12/20 21:47:27;;;;;;;8.00;2.95;;;-0.70;99.90;;;;;;7263183;32;20404;-82
2021/12/20 21:51:29;;;;;;;13.55;2.90;;;-0.80;99.90;;;;;;7256949;32;20154;-78
2021/12/20 21:55:32;;;;;;;6.47;2.90;;;-0.80;99.90;;;;;;7257166;32;20163;-78
2021/12/20 21:59:34;;;;;;;6.93;2.70;;;-0.80;99.90;;;;;;7271371;32;20162;-79
2021/12/20 22:03:41;;;;;;;9.35;3.20;;;-0.80;99.90;;;;;;7281233;32;20498;-80
2021/12/20 22:07:43;;;;;;;7.05;3.33;;;-0.80;99.90;;;;;;7282086;32;20104;-80